createdAt,value
2022-10-17T00:00:58.869Z,961.76
2022-10-17T00:03:59.458Z,961.73
2022-10-17T00:06:58.492Z,961.81
2022-10-17T00:09:59.239Z,961.82
2022-10-17T00:12:58.594Z,961.79
2022-10-17T00:15:58.363Z,961.81
2022-10-17T00:18:59.236Z,961.77
2022-10-17T00:21:59.173Z,961.77
2022-10-17T00:24:58.162Z,961.86
2022-10-17T00:27:58.664Z,961.83
2022-10-17T00:30:59.034Z,961.89
2022-10-17T00:33:59.054Z,961.9
2022-10-17T00:36:59.119Z,961.86
2022-10-17T00:39:58.961Z,961.83
2022-10-17T00:42:58.978Z,961.87
2022-10-17T00:45:58.978Z,961.9
2022-10-17T00:48:59.438Z,961.93
2022-10-17T00:51:58.613Z,961.9
2022-10-17T00:54:58.689Z,961.94
2022-10-17T00:57:58.761Z,961.96
2022-10-17T01:00:59.345Z,961.92
2022-10-17T01:03:58.823Z,961.96
2022-10-17T01:06:59.558Z,962.0
2022-10-17T01:09:59.625Z,962.0
2022-10-17T01:12:58.554Z,962.0
2022-10-17T01:15:59.618Z,961.97
2022-10-17T01:18:58.619Z,962.0
2022-10-17T01:21:59.269Z,961.93
2022-10-17T01:24:58.629Z,961.96
2022-10-17T01:27:58.899Z,961.96
2022-10-17T01:30:58.362Z,961.9
2022-10-17T01:33:59.568Z,961.94
2022-10-17T01:36:59.314Z,961.99
2022-10-17T01:39:58.639Z,961.93
2022-10-17T01:42:59.088Z,961.91
2022-10-17T01:45:59.461Z,961.86
2022-10-17T01:48:59.095Z,961.84
2022-10-17T01:51:58.646Z,961.84
2022-10-17T01:54:58.868Z,961.86
2022-10-17T01:57:59.002Z,961.74
2022-10-17T02:00:58.387Z,961.83
2022-10-17T02:03:58.707Z,961.81
2022-10-17T02:06:58.865Z,961.8
2022-10-17T02:09:58.736Z,961.83
2022-10-17T02:12:58.588Z,961.84
2022-10-17T02:15:58.923Z,961.83
2022-10-17T02:18:58.554Z,961.88
2022-10-17T02:21:59.549Z,961.78
2022-10-17T02:24:58.590Z,961.83
2022-10-17T02:27:58.535Z,961.77
2022-10-17T02:30:59.537Z,961.84
2022-10-17T02:33:58.482Z,961.83
2022-10-17T02:36:58.248Z,961.8
2022-10-17T02:39:59.373Z,961.86
2022-10-17T02:42:58.735Z,961.89
2022-10-17T02:45:59.221Z,961.87
2022-10-17T02:48:58.776Z,961.8
2022-10-17T02:51:58.609Z,961.74
2022-10-17T02:54:58.391Z,961.79
2022-10-17T02:57:58.536Z,961.8
2022-10-17T03:00:59.152Z,961.86
2022-10-17T03:03:58.260Z,961.83
2022-10-17T03:06:58.578Z,961.98
2022-10-17T03:09:59.830Z,961.89
2022-10-17T03:12:58.570Z,961.93
2022-10-17T03:15:58.885Z,961.97
2022-10-17T03:18:58.855Z,961.94
2022-10-17T03:21:59.055Z,962.03
2022-10-17T03:24:58.666Z,961.91
2022-10-17T03:27:58.722Z,962.03
2022-10-17T03:30:58.738Z,962.11
2022-10-17T03:33:58.598Z,962.04
2022-10-17T03:36:58.481Z,962.06
2022-10-17T03:39:59.837Z,962.07
2022-10-17T03:42:59.028Z,962.05
2022-10-17T03:45:59.363Z,962.12
2022-10-17T03:48:58.604Z,962.15
2022-10-17T03:51:58.439Z,962.16
2022-10-17T03:54:58.484Z,962.11
2022-10-17T03:57:59.165Z,962.19
2022-10-17T04:00:59.421Z,962.06
2022-10-17T04:03:58.218Z,962.11
2022-10-17T04:06:58.993Z,962.16
2022-10-17T04:09:59.314Z,962.16
2022-10-17T04:12:59.240Z,962.16
2022-10-17T04:15:58.753Z,962.12
2022-10-17T04:18:58.871Z,962.16
2022-10-17T04:21:59.044Z,962.14
2022-10-17T04:24:58.988Z,962.19
2022-10-17T04:27:58.878Z,962.2
2022-10-17T04:30:59.151Z,962.29
2022-10-17T04:33:58.951Z,962.29
2022-10-17T04:36:58.826Z,962.36
2022-10-17T04:39:58.751Z,962.34
2022-10-17T04:42:58.708Z,962.33
2022-10-17T04:45:59.014Z,962.39
2022-10-17T04:48:58.975Z,962.32
2022-10-17T04:51:58.582Z,962.31
2022-10-17T04:54:58.619Z,962.2
2022-10-17T04:57:59.159Z,962.35
2022-10-17T05:01:00.061Z,962.28
2022-10-17T05:03:59.633Z,962.35
2022-10-17T05:06:59.647Z,962.42
2022-10-17T05:09:58.992Z,962.38
2022-10-17T05:12:59.251Z,962.41
2022-10-17T05:15:59.144Z,962.5
2022-10-17T05:18:59.429Z,962.43
2022-10-17T05:21:59.377Z,962.49
2022-10-17T05:24:59.114Z,962.51
2022-10-17T05:27:59.095Z,962.48
2022-10-17T05:30:59.983Z,962.58
2022-10-17T05:33:59.003Z,962.68
2022-10-17T05:36:58.865Z,962.65
2022-10-17T05:39:59.434Z,962.72
2022-10-17T05:42:59.071Z,962.78
2022-10-17T05:45:58.797Z,962.8
2022-10-17T05:48:58.737Z,962.74
2022-10-17T05:51:59.637Z,962.74
2022-10-17T05:54:58.627Z,962.8
2022-10-17T05:57:59.774Z,962.79
2022-10-17T06:01:00.551Z,962.77
2022-10-17T06:03:59.550Z,962.84
2022-10-17T06:06:59.086Z,962.83
2022-10-17T06:09:59.394Z,962.86
2022-10-17T06:12:59.368Z,962.86
2022-10-17T06:15:59.474Z,963.0
2022-10-17T06:18:58.651Z,962.89
2022-10-17T06:21:59.520Z,962.93
2022-10-17T06:24:59.334Z,962.89
2022-10-17T06:27:59.171Z,962.99
2022-10-17T06:30:59.363Z,962.99
2022-10-17T06:33:58.900Z,962.93
2022-10-17T06:36:58.486Z,963.0
2022-10-17T06:39:59.090Z,962.97
2022-10-17T06:42:58.907Z,963.07
2022-10-17T06:45:59.049Z,963.08
2022-10-17T06:48:59.410Z,963.21
2022-10-17T06:51:58.993Z,963.29
2022-10-17T06:54:59.198Z,963.32
2022-10-17T06:57:58.876Z,963.32
2022-10-17T07:01:01.022Z,963.34
2022-10-17T07:03:58.596Z,963.35
2022-10-17T07:09:59.721Z,963.28
2022-10-17T07:12:58.650Z,963.32
2022-10-17T07:15:59.651Z,963.3
2022-10-17T07:18:58.655Z,963.3
2022-10-17T07:21:58.923Z,963.34
2022-10-17T07:24:59.584Z,963.39
2022-10-17T07:27:59.539Z,963.46
2022-10-17T07:30:59.409Z,963.43
2022-10-17T07:33:58.525Z,963.4
2022-10-17T07:36:58.366Z,963.41
2022-10-17T07:39:59.273Z,963.55
2022-10-17T07:42:58.473Z,963.54
2022-10-17T07:45:59.155Z,963.64
2022-10-17T07:48:58.644Z,963.58
2022-10-17T07:51:58.431Z,963.56
2022-10-17T07:54:58.571Z,963.58
2022-10-17T07:57:58.912Z,963.65
2022-10-17T08:00:58.925Z,963.62
2022-10-17T08:03:59.331Z,963.62
2022-10-17T08:07:11.390Z,963.63
2022-10-17T08:09:58.972Z,963.66
2022-10-17T08:12:59.059Z,963.76
2022-10-17T08:15:58.706Z,963.73
2022-10-17T08:18:58.859Z,963.67
2022-10-17T08:21:59.448Z,963.69
2022-10-17T08:24:58.579Z,963.72
2022-10-17T08:27:59.283Z,963.74
2022-10-17T08:30:59.691Z,963.72
2022-10-17T08:33:59.403Z,963.71
2022-10-17T08:36:58.794Z,963.75
2022-10-17T08:39:59.282Z,963.77
2022-10-17T08:42:58.450Z,963.74
2022-10-17T08:45:59.195Z,963.77
2022-10-17T08:48:58.940Z,963.71
2022-10-17T08:51:59.292Z,963.69
2022-10-17T08:54:58.386Z,963.82
2022-10-17T08:57:58.829Z,963.85
2022-10-17T09:00:58.424Z,963.85
2022-10-17T09:03:58.950Z,963.8
2022-10-17T09:06:58.235Z,963.83
2022-10-17T09:09:58.997Z,963.79
2022-10-17T09:13:00.886Z,963.74
2022-10-17T09:15:59.080Z,963.8
2022-10-17T09:18:59.274Z,963.74
2022-10-17T09:21:59.200Z,963.88
2022-10-17T09:24:58.846Z,963.91
2022-10-17T09:27:59.095Z,963.89
2022-10-17T09:30:58.838Z,963.92
2022-10-17T09:33:58.914Z,963.89
2022-10-17T09:36:58.765Z,963.82
2022-10-17T09:39:58.946Z,963.87
2022-10-17T09:42:59.456Z,963.83
2022-10-17T09:45:59.280Z,963.87
2022-10-17T09:48:58.964Z,963.92
2022-10-17T09:51:59.459Z,963.81
2022-10-17T09:54:59.444Z,963.85
2022-10-17T09:57:58.382Z,963.91
2022-10-17T10:00:59.641Z,963.85
2022-10-17T10:03:58.891Z,963.81
2022-10-17T10:06:58.277Z,963.85
2022-10-17T10:09:59.381Z,963.95
2022-10-17T10:12:58.290Z,963.89
2022-10-17T10:15:58.692Z,963.96
2022-10-17T10:18:58.325Z,963.89
2022-10-17T10:21:58.926Z,963.96
2022-10-17T10:24:59.021Z,963.95
2022-10-17T10:28:00.805Z,963.88
2022-10-17T10:30:58.935Z,963.79
2022-10-17T10:33:59.896Z,963.82
2022-10-17T10:36:59.099Z,963.83
2022-10-17T10:39:58.271Z,963.86
2022-10-17T10:43:03.996Z,963.84
2022-10-17T10:45:58.985Z,963.84
2022-10-17T10:48:59.121Z,963.84
2022-10-17T10:51:58.574Z,963.82
2022-10-17T10:54:59.016Z,963.8
2022-10-17T10:57:58.541Z,963.74
2022-10-17T11:01:00.540Z,963.78
2022-10-17T11:04:16.973Z,963.74
2022-10-17T11:06:58.546Z,963.74
2022-10-17T11:09:58.647Z,963.78
2022-10-17T11:12:59.212Z,963.75
2022-10-17T11:15:58.377Z,963.75
2022-10-17T11:18:59.105Z,963.76
2022-10-17T11:21:58.730Z,963.81
2022-10-17T11:24:58.585Z,963.82
2022-10-17T11:28:04.469Z,963.79
2022-10-17T11:30:58.978Z,963.84
2022-10-17T11:33:59.046Z,963.78
2022-10-17T11:36:58.432Z,963.84
2022-10-17T11:39:58.915Z,963.86
2022-10-17T11:42:59.168Z,963.82
2022-10-17T11:45:59.384Z,963.8
2022-10-17T11:48:58.840Z,963.8
2022-10-17T11:52:00.617Z,963.86
2022-10-17T11:54:59.126Z,963.89
2022-10-17T11:57:59.175Z,963.91
2022-10-17T12:00:58.862Z,963.89
2022-10-17T12:03:58.865Z,963.96
2022-10-17T12:06:59.016Z,963.88
2022-10-17T12:09:59.583Z,963.79
2022-10-17T12:12:59.112Z,963.87
2022-10-17T12:15:58.775Z,963.78
2022-10-17T12:18:58.626Z,963.85
2022-10-17T12:21:58.689Z,963.85
2022-10-17T12:24:59.289Z,963.81
2022-10-17T12:27:58.986Z,963.79
2022-10-17T12:30:58.817Z,963.83
2022-10-17T12:33:59.354Z,963.86
2022-10-17T12:36:58.607Z,963.85
2022-10-17T12:39:59.274Z,963.79
2022-10-17T12:42:59.143Z,963.85
2022-10-17T12:45:59.035Z,963.9
2022-10-17T12:48:59.402Z,963.83
2022-10-17T12:51:58.617Z,963.82
2022-10-17T12:55:11.499Z,963.89
2022-10-17T12:57:59.116Z,963.91
2022-10-17T13:01:22.668Z,963.94
2022-10-17T13:03:58.732Z,963.9
2022-10-17T13:06:59.728Z,963.95
2022-10-17T13:09:59.781Z,963.94
2022-10-17T13:12:59.749Z,963.89
2022-10-17T13:15:59.185Z,963.94
2022-10-17T13:18:58.625Z,964.06
2022-10-17T13:22:02.253Z,964.0
2022-10-17T13:24:58.756Z,963.96
2022-10-17T13:27:59.565Z,963.96
2022-10-17T13:30:59.409Z,963.97
2022-10-17T13:33:58.769Z,963.99
2022-10-17T13:36:58.791Z,963.98
2022-10-17T13:40:06.215Z,963.93
2022-10-17T13:42:58.796Z,964.05
2022-10-17T13:46:09.147Z,963.97
2022-10-17T13:48:59.219Z,964.1
2022-10-17T13:51:59.181Z,964.05
2022-10-17T13:54:58.321Z,963.94
2022-10-17T13:57:59.016Z,964.07
2022-10-17T14:00:59.288Z,964.11
2022-10-17T14:04:08.211Z,964.08
2022-10-17T14:06:59.147Z,964.11
2022-10-17T14:09:59.059Z,964.06
2022-10-17T14:12:58.360Z,964.07
2022-10-17T14:15:59.781Z,964.16
2022-10-17T14:18:59.420Z,964.15
2022-10-17T14:21:58.990Z,964.22
2022-10-17T14:25:02.494Z,964.23
2022-10-17T14:27:59.237Z,964.29
2022-10-17T14:30:59.175Z,964.29
2022-10-17T14:33:58.608Z,964.26
2022-10-17T14:36:58.953Z,964.25
2022-10-17T14:39:59.542Z,964.23
2022-10-17T14:42:58.997Z,964.25
2022-10-17T14:45:59.796Z,964.28
2022-10-17T14:48:58.626Z,964.35
2022-10-17T14:52:07.438Z,964.31
2022-10-17T14:54:59.317Z,964.29
2022-10-17T14:57:59.523Z,964.4
2022-10-17T15:00:59.439Z,964.41
2022-10-17T15:03:59.135Z,964.43
2022-10-17T15:06:59.074Z,964.48
2022-10-17T15:09:59.090Z,964.51
2022-10-17T15:13:04.636Z,964.46
2022-10-17T15:15:59.557Z,964.44
2022-10-17T15:18:59.154Z,964.54
2022-10-17T15:21:58.636Z,964.57
2022-10-17T15:24:58.918Z,964.53
2022-10-17T15:27:58.203Z,964.62
2022-10-17T15:30:59.701Z,964.62
2022-10-17T15:33:59.466Z,964.64
2022-10-17T15:36:59.106Z,964.55
2022-10-17T15:39:59.781Z,964.54
2022-10-17T15:42:58.973Z,964.7
2022-10-17T15:45:59.616Z,964.57
2022-10-17T15:48:59.435Z,964.74
2022-10-17T15:51:59.572Z,964.67
2022-10-17T15:55:01.043Z,964.76
2022-10-17T15:57:59.486Z,964.63
2022-10-17T16:00:59.674Z,964.67
2022-10-17T16:03:59.360Z,964.71
2022-10-17T16:06:59.316Z,964.67
2022-10-17T16:09:59.364Z,964.71
2022-10-17T16:12:59.047Z,964.67
2022-10-17T16:15:59.876Z,964.7
2022-10-17T16:18:59.298Z,964.8
2022-10-17T16:22:00.849Z,964.76
2022-10-17T16:24:59.115Z,964.9
2022-10-17T16:27:59.453Z,964.91
2022-10-17T16:31:00.002Z,964.93
2022-10-17T16:33:59.151Z,964.94
2022-10-17T16:36:59.891Z,964.94
2022-10-17T16:39:59.781Z,965.09
2022-10-17T16:42:58.990Z,965.05
2022-10-17T16:46:00.556Z,965.1
2022-10-17T16:48:59.748Z,964.97
2022-10-17T16:51:58.815Z,965.06
2022-10-17T16:54:58.560Z,965.02
2022-10-17T16:57:58.868Z,965.09
2022-10-17T17:01:00.492Z,965.08
2022-10-17T17:03:59.796Z,965.09
2022-10-17T17:06:59.447Z,965.04
2022-10-17T17:09:59.393Z,965.04
2022-10-17T17:12:58.656Z,965.15
2022-10-17T17:15:58.429Z,965.09
2022-10-17T17:18:59.227Z,965.15
2022-10-17T17:21:59.351Z,965.18
2022-10-17T17:24:59.127Z,965.23
2022-10-17T17:27:59.365Z,965.31
2022-10-17T17:30:59.206Z,965.3
2022-10-17T17:33:59.235Z,965.27
2022-10-17T17:36:59.426Z,965.27
2022-10-17T17:39:58.944Z,965.24
2022-10-17T17:42:58.485Z,965.4
2022-10-17T17:45:59.499Z,965.4
2022-10-17T17:48:58.936Z,965.39
2022-10-17T17:51:58.308Z,965.52
2022-10-17T17:54:58.804Z,965.52
2022-10-17T17:57:59.103Z,965.52
2022-10-17T18:01:25.923Z,965.39
2022-10-17T18:03:58.682Z,965.45
2022-10-17T18:06:58.871Z,965.45
2022-10-17T18:09:59.709Z,965.43
2022-10-17T18:12:59.012Z,965.55
2022-10-17T18:15:59.432Z,965.45
2022-10-17T18:19:02.658Z,965.55
2022-10-17T18:21:59.051Z,965.57
2022-10-17T18:24:58.846Z,965.45
2022-10-17T18:27:58.511Z,965.57
2022-10-17T18:30:59.519Z,965.58
2022-10-17T18:33:58.698Z,965.5
2022-10-17T18:36:59.263Z,965.66
2022-10-17T18:39:58.509Z,965.54
2022-10-17T18:42:58.545Z,965.68
2022-10-17T18:45:59.143Z,965.71
2022-10-17T18:48:58.306Z,965.82
2022-10-17T18:51:59.787Z,965.72
2022-10-17T18:54:59.048Z,965.72
2022-10-17T18:57:58.717Z,965.61
2022-10-17T19:00:59.001Z,965.65
2022-10-17T19:03:59.201Z,965.77
2022-10-17T19:06:59.162Z,965.75
2022-10-17T19:09:58.915Z,965.72
2022-10-17T19:12:59.754Z,965.71
2022-10-17T19:15:59.561Z,965.81
2022-10-17T19:18:58.947Z,965.8
2022-10-17T19:21:59.154Z,965.87
2022-10-17T19:24:58.601Z,965.88
2022-10-17T19:27:58.907Z,965.89
2022-10-17T19:30:58.907Z,965.86
2022-10-17T19:33:59.387Z,965.89
2022-10-17T19:36:58.577Z,965.86
2022-10-17T19:39:59.436Z,965.89
2022-10-17T19:42:58.792Z,965.89
2022-10-17T19:45:59.368Z,965.92
2022-10-17T19:48:58.540Z,965.92
2022-10-17T19:51:58.629Z,965.9
2022-10-17T19:54:59.045Z,965.92
2022-10-17T19:57:59.167Z,965.96
2022-10-17T20:00:59.401Z,966.08
2022-10-17T20:03:58.243Z,966.02
2022-10-17T20:06:58.843Z,966.03
2022-10-17T20:09:59.004Z,966.05
2022-10-17T20:12:59.361Z,966.08
2022-10-17T20:15:58.728Z,966.12
2022-10-17T20:18:59.789Z,966.16
2022-10-17T20:21:58.457Z,966.04
2022-10-17T20:24:58.838Z,966.12
2022-10-17T20:27:59.646Z,966.14
2022-10-17T20:30:59.571Z,966.11
2022-10-17T20:33:58.805Z,966.08
2022-10-17T20:36:59.182Z,966.22
2022-10-17T20:40:22.618Z,966.12
2022-10-17T20:42:59.001Z,966.12
2022-10-17T20:46:04.578Z,966.07
2022-10-17T20:48:58.806Z,966.05
2022-10-17T20:51:59.240Z,966.11
2022-10-17T20:54:58.332Z,966.18
2022-10-17T20:57:59.179Z,966.1
2022-10-17T21:00:59.225Z,966.17
2022-10-17T21:04:02.611Z,966.14
2022-10-17T21:06:59.392Z,966.18
2022-10-17T21:10:12.233Z,966.11
2022-10-17T21:12:59.293Z,966.24
2022-10-17T21:15:59.053Z,966.14
2022-10-17T21:18:58.783Z,966.15
2022-10-17T21:21:59.158Z,966.11
2022-10-17T21:24:58.181Z,966.13
2022-10-17T21:27:58.857Z,966.05
2022-10-17T21:30:59.707Z,966.11
2022-10-17T21:33:58.748Z,966.15
2022-10-17T21:36:58.815Z,966.07
2022-10-17T21:39:59.003Z,966.02
2022-10-17T21:42:59.557Z,966.04
2022-10-17T21:45:58.725Z,966.01
2022-10-17T21:48:59.163Z,966.05
2022-10-17T21:51:58.957Z,965.95
2022-10-17T21:54:58.918Z,965.9
2022-10-17T21:57:59.243Z,966.03
2022-10-17T22:00:59.491Z,965.91
2022-10-17T22:03:58.300Z,965.9
2022-10-17T22:06:59.364Z,965.92
2022-10-17T22:09:58.421Z,965.88
2022-10-17T22:12:58.382Z,965.87
2022-10-17T22:15:59.619Z,965.93
2022-10-17T22:19:03.123Z,965.94
2022-10-17T22:21:59.292Z,965.91
2022-10-17T22:24:59.090Z,965.87
2022-10-17T22:27:59.132Z,965.94
2022-10-17T22:30:59.107Z,965.91
2022-10-17T22:33:59.119Z,965.83
2022-10-17T22:36:58.869Z,965.86
2022-10-17T22:39:59.041Z,965.93
2022-10-17T22:42:59.358Z,965.81
2022-10-17T22:45:58.663Z,965.77
2022-10-17T22:48:58.799Z,965.7
2022-10-17T22:51:58.819Z,965.78
2022-10-17T22:54:58.837Z,965.73
2022-10-17T22:57:58.771Z,965.6
2022-10-17T23:00:59.306Z,965.68
2022-10-17T23:03:58.753Z,965.63
2022-10-17T23:06:58.691Z,965.55
2022-10-17T23:09:59.519Z,965.64
2022-10-17T23:12:58.464Z,965.56
2022-10-17T23:15:59.307Z,965.56
2022-10-17T23:18:59.226Z,965.55
2022-10-17T23:21:59.313Z,965.55
2022-10-17T23:24:58.981Z,965.54
2022-10-17T23:27:59.184Z,965.59
2022-10-17T23:31:13.627Z,965.6
2022-10-17T23:33:58.947Z,965.57
2022-10-17T23:36:59.017Z,965.59
2022-10-17T23:39:58.983Z,965.59
2022-10-17T23:42:59.066Z,965.52
2022-10-17T23:45:59.844Z,965.59
2022-10-17T23:48:58.493Z,965.57
2022-10-17T23:51:59.006Z,965.52
2022-10-17T23:54:59.326Z,965.55
2022-10-17T23:57:58.470Z,965.49
